Time;durP1;ratioP1;P1;durP2;ratioP2;P2;SDS_P1;SDS_P2;PMS_P1;PMS_P2;Temp;Humidity;BMP_temperature;BMP_pressure;BME280_temperature;BME280_humidity;BME280_pressure;Samples;Min_cycle;Max_cycle;Signal;HPM_P1;HPM_P2
2022/08/14 00:02:02;;;;;;;0.17;0.13;;;24.90;95.60;;;;;;5039805;28;20053;-68
2022/08/14 00:04:32;;;;;;;0.22;0.22;;;24.80;95.70;;;;;;5027619;28;20121;-68
2022/08/14 00:06:59;;;;;;;0.93;0.25;;;24.80;95.70;;;;;;5029220;28;20045;-68
2022/08/14 00:09:25;;;;;;;1.17;0.60;;;24.80;95.80;;;;;;5031555;28;20052;-69
2022/08/14 00:11:50;;;;;;;0.00;0.00;;;24.80;95.90;;;;;;5044961;28;20664;-68
2022/08/14 00:14:17;;;;;;;0.38;0.30;;;24.80;96.00;;;;;;5047921;28;20495;-68
2022/08/14 00:16:42;;;;;;;0.00;0.00;;;24.80;96.00;;;;;;5030927;28;20041;-69
2022/08/14 00:19:09;;;;;;;0.60;0.55;;;24.80;95.90;;;;;;5037293;28;20374;-68
2022/08/14 00:21:35;;;;;;;2.40;1.15;;;24.70;96.00;;;;;;5038721;28;20061;-68
2022/08/14 00:24:03;;;;;;;0.20;0.20;;;24.70;95.90;;;;;;5032812;28;20044;-69
2022/08/14 00:26:29;;;;;;;0.10;0.10;;;24.70;96.00;;;;;;5045621;28;20044;-68
2022/08/14 00:28:55;;;;;;;0.30;0.30;;;24.70;96.20;;;;;;5033078;28;20435;-68
2022/08/14 00:31:21;;;;;;;0.10;0.10;;;24.60;96.20;;;;;;5052410;28;20381;-68
2022/08/14 00:33:47;;;;;;;0.10;0.10;;;24.60;96.10;;;;;;5046832;28;20431;-68
2022/08/14 00:36:12;;;;;;;0.45;0.28;;;24.60;96.20;;;;;;5028530;28;20041;-68
2022/08/14 00:38:38;;;;;;;0.10;0.10;;;24.50;96.20;;;;;;5042635;28;20731;-68
2022/08/14 00:41:05;;;;;;;0.28;0.28;;;24.50;96.40;;;;;;5039365;28;20077;-68
2022/08/14 00:43:33;;;;;;;1.48;1.08;;;24.50;96.40;;;;;;5046508;28;20044;-68
2022/08/14 00:46:08;;;;;;;0.08;0.08;;;24.40;96.20;;;;;;5042270;28;20514;-68
2022/08/14 00:48:35;;;;;;;0.10;0.10;;;24.40;96.40;;;;;;5043628;28;20037;-68
2022/08/14 00:51:02;;;;;;;0.00;0.00;;;24.40;96.40;;;;;;5048731;28;20049;-68
2022/08/14 00:53:27;;;;;;;0.00;0.00;;;24.30;96.50;;;;;;5036686;28;20072;-68
2022/08/14 00:55:56;;;;;;;11.18;1.50;;;24.30;96.50;;;;;;5035292;28;20460;-68
2022/08/14 00:58:31;;;;;;;0.15;0.15;;;24.30;96.60;;;;;;5038173;28;20489;-69
2022/08/14 01:01:09;;;;;;;0.00;0.00;;;24.20;96.60;;;;;;5040409;28;20056;-68
2022/08/14 01:03:38;;;;;;;0.10;0.10;;;24.30;96.70;;;;;;5032138;28;20071;-68
2022/08/14 01:06:07;;;;;;;0.52;0.35;;;24.20;96.80;;;;;;5047304;28;20048;-68
2022/08/14 01:08:34;;;;;;;0.10;0.10;;;24.20;96.80;;;;;;5045637;28;20754;-68
2022/08/14 01:11:00;;;;;;;2.78;1.17;;;24.10;96.80;;;;;;5043042;28;20140;-68
2022/08/14 01:13:32;;;;;;;0.00;0.00;;;24.10;96.90;;;;;;5037439;28;20147;-68
2022/08/14 01:15:59;;;;;;;;;;;24.10;96.90;;;;;;5065201;28;20488;-68
2022/08/14 01:21:14;;;;;;;0.60;0.52;;;24.10;97.20;;;;;;5045027;28;20053;-68
2022/08/14 01:23:43;;;;;;;0.08;0.08;;;24.10;96.90;;;;;;5037624;28;20128;-68
2022/08/14 01:26:10;;;;;;;0.30;0.30;;;24.00;97.20;;;;;;5041518;28;20041;-68
2022/08/14 01:28:37;;;;;;;0.95;0.47;;;24.00;97.20;;;;;;5038760;28;20076;-68
2022/08/14 01:31:07;;;;;;;0.00;0.00;;;24.00;97.10;;;;;;5032957;28;20045;-68
2022/08/14 01:33:33;;;;;;;0.65;0.55;;;24.00;97.10;;;;;;5039438;28;20144;-68
2022/08/14 01:36:00;;;;;;;0.00;0.00;;;23.90;97.40;;;;;;5047666;28;20051;-68
2022/08/14 01:38:32;;;;;;;0.38;0.20;;;23.90;97.30;;;;;;5040098;28;20049;-68
2022/08/14 01:40:59;;;;;;;0.43;0.33;;;23.90;97.40;;;;;;5042049;28;20472;-68
2022/08/14 01:43:29;;;;;;;0.15;0.15;;;23.80;97.50;;;;;;5047643;28;20072;-68
2022/08/14 01:45:59;;;;;;;1.85;0.40;;;23.90;97.50;;;;;;5044368;28;20559;-69
2022/08/14 01:48:27;;;;;;;0.00;0.00;;;23.80;97.60;;;;;;5037993;28;20049;-68
2022/08/14 01:50:53;;;;;;;0.20;0.15;;;23.80;97.50;;;;;;5047410;28;20404;-68
2022/08/14 01:53:19;;;;;;;0.00;0.00;;;23.80;97.40;;;;;;5048042;28;20519;-68
2022/08/14 01:55:44;;;;;;;0.00;0.00;;;23.80;97.50;;;;;;5040590;28;20041;-68
2022/08/14 01:58:12;;;;;;;0.10;0.10;;;23.80;97.50;;;;;;5034608;28;20116;-68
2022/08/14 02:00:38;;;;;;;1.10;1.00;;;23.80;97.50;;;;;;5035571;28;20045;-68
2022/08/14 02:03:04;;;;;;;1.25;0.10;;;23.70;97.60;;;;;;5047043;28;20483;-68
2022/08/14 02:05:30;;;;;;;0.55;0.28;;;23.70;97.70;;;;;;5043751;28;20668;-68
2022/08/14 02:07:56;;;;;;;0.00;0.00;;;23.70;97.90;;;;;;5037338;28;20068;-68
2022/08/14 02:10:21;;;;;;;0.10;0.10;;;23.70;97.80;;;;;;5029959;28;20053;-70
2022/08/14 02:12:48;;;;;;;0.00;0.00;;;23.60;98.00;;;;;;5048791;28;20048;-69
2022/08/14 02:15:13;;;;;;;0.65;0.65;;;23.70;98.10;;;;;;5047066;28;20045;-69
2022/08/14 02:17:40;;;;;;;1.52;0.57;;;23.60;98.00;;;;;;5038418;28;20049;-69
2022/08/14 02:20:07;;;;;;;0.32;0.13;;;23.60;97.90;;;;;;5030236;28;20088;-69
2022/08/14 02:22:33;;;;;;;1.10;0.88;;;23.60;98.00;;;;;;5036442;28;20041;-69
2022/08/14 02:25:00;;;;;;;0.15;0.15;;;23.60;98.10;;;;;;5038198;28;20118;-69
2022/08/14 02:27:28;;;;;;;0.17;0.17;;;23.60;98.10;;;;;;5029951;28;20036;-69
2022/08/14 02:29:55;;;;;;;0.82;0.80;;;23.60;98.20;;;;;;5028935;28;20041;-69
2022/08/14 02:32:20;;;;;;;0.25;0.25;;;23.50;98.20;;;;;;5026016;28;20049;-69
2022/08/14 02:34:46;;;;;;;0.98;0.88;;;23.50;98.10;;;;;;5029683;28;20513;-69
2022/08/14 02:37:12;;;;;;;0.00;0.00;;;23.50;98.30;;;;;;5037428;28;20110;-69
2022/08/14 02:39:43;;;;;;;0.20;0.20;;;23.50;98.30;;;;;;5041088;28;20045;-69
2022/08/14 02:42:14;;;;;;;0.30;0.30;;;23.40;98.40;;;;;;5038768;28;20492;-69
2022/08/14 02:44:43;;;;;;;0.50;0.50;;;23.40;98.40;;;;;;5036202;28;20416;-69
2022/08/14 02:47:10;;;;;;;1.25;0.55;;;23.40;98.60;;;;;;5044336;28;20532;-69
2022/08/14 02:49:36;;;;;;;0.30;0.30;;;23.40;98.50;;;;;;5049365;28;20044;-69
2022/08/14 02:52:06;;;;;;;0.28;0.28;;;23.40;98.60;;;;;;5037212;28;20049;-69
2022/08/14 02:54:33;;;;;;;0.63;0.63;;;23.40;98.60;;;;;;5035200;28;20050;-69
2022/08/14 02:57:00;;;;;;;1.80;0.88;;;23.30;98.70;;;;;;5040630;28;20052;-69
2022/08/14 02:59:28;;;;;;;0.03;0.00;;;23.40;98.70;;;;;;5028809;28;20050;-68
2022/08/14 03:01:56;;;;;;;0.00;0.00;;;23.30;98.80;;;;;;5041355;28;20049;-69
2022/08/14 03:04:22;;;;;;;1.02;0.98;;;23.30;99.00;;;;;;5046499;28;20037;-69
2022/08/14 03:06:49;;;;;;;0.20;0.20;;;23.30;98.90;;;;;;5035936;28;20052;-69
2022/08/14 03:09:15;;;;;;;0.00;0.00;;;23.30;98.90;;;;;;5028376;28;20573;-69
2022/08/14 03:11:43;;;;;;;1.35;0.35;;;23.20;99.00;;;;;;5035885;28;20683;-69
2022/08/14 03:14:10;;;;;;;0.10;0.10;;;23.20;99.10;;;;;;5028805;28;20545;-69
2022/08/14 03:16:36;;;;;;;1.20;0.73;;;23.10;99.40;;;;;;5044245;28;20578;-68
2022/08/14 03:19:04;;;;;;;0.47;0.40;;;23.10;99.10;;;;;;5028135;28;20073;-69
2022/08/14 03:21:30;;;;;;;0.08;0.08;;;23.10;99.10;;;;;;5044984;28;20556;-69
2022/08/14 03:24:14;;;;;;;1.02;0.85;;;23.10;99.30;;;;;;5040727;28;20091;-68
2022/08/14 03:26:43;;;;;;;0.10;0.10;;;23.00;99.30;;;;;;5038979;28;20503;-69
2022/08/14 03:29:11;;;;;;;5.43;0.28;;;23.00;99.30;;;;;;5033812;28;20049;-69
2022/08/14 03:31:39;;;;;;;0.10;0.10;;;23.00;99.40;;;;;;5040534;28;20063;-69
2022/08/14 03:34:06;;;;;;;1.23;0.60;;;23.00;99.50;;;;;;5037612;28;20477;-69
2022/08/14 03:36:32;;;;;;;0.40;0.38;;;23.00;99.50;;;;;;5042659;28;20053;-69
2022/08/14 03:38:59;;;;;;;0.08;0.08;;;23.00;99.70;;;;;;5039764;28;20049;-69
2022/08/14 03:41:26;;;;;;;0.10;0.10;;;23.00;99.50;;;;;;5033868;28;20045;-68
2022/08/14 03:43:58;;;;;;;0.30;0.30;;;22.90;99.60;;;;;;5046152;28;20094;-69
2022/08/14 03:46:26;;;;;;;0.25;0.25;;;22.90;99.80;;;;;;5046571;28;20052;-69
2022/08/14 03:48:53;;;;;;;1.02;0.68;;;22.90;99.70;;;;;;5046202;28;20049;-69
2022/08/14 03:51:20;;;;;;;0.30;0.30;;;22.80;99.70;;;;;;5030628;28;20580;-69
2022/08/14 03:53:46;;;;;;;0.77;0.47;;;22.80;99.80;;;;;;5048895;28;20061;-70
2022/08/14 03:56:15;;;;;;;0.65;0.32;;;22.80;99.90;;;;;;5047058;28;20452;-69
2022/08/14 03:58:54;;;;;;;0.20;0.20;;;22.80;99.80;;;;;;5041655;28;20053;-69
2022/08/14 04:01:22;;;;;;;0.40;0.40;;;22.70;99.90;;;;;;5029864;28;20120;-68
2022/08/14 04:03:48;;;;;;;0.88;0.73;;;22.70;99.90;;;;;;5036007;28;20846;-68
2022/08/14 04:06:15;;;;;;;0.15;0.10;;;22.80;99.90;;;;;;5036828;28;20045;-69
2022/08/14 04:08:42;;;;;;;0.82;0.68;;;22.70;99.90;;;;;;5045217;28;20148;-68
2022/08/14 04:11:09;;;;;;;1.73;1.60;;;22.70;99.90;;;;;;5034760;28;20045;-69
2022/08/14 04:13:38;;;;;;;0.55;0.35;;;22.70;99.90;;;;;;5031062;28;20072;-68
2022/08/14 04:16:06;;;;;;;5.32;0.50;;;22.60;99.90;;;;;;5035611;28;20102;-68
2022/08/14 04:18:32;;;;;;;0.43;0.25;;;22.60;99.90;;;;;;5050221;28;20122;-68
2022/08/14 04:20:58;;;;;;;0.03;0.03;;;22.60;99.90;;;;;;5051004;28;20396;-68
2022/08/14 04:23:24;;;;;;;0.10;0.10;;;22.60;99.90;;;;;;5044738;28;20467;-68
2022/08/14 04:25:53;;;;;;;1.55;0.75;;;22.60;99.90;;;;;;5037584;28;20124;-68
2022/08/14 04:28:20;;;;;;;0.43;0.43;;;22.50;99.90;;;;;;5048153;28;20480;-68
2022/08/14 04:30:46;;;;;;;0.25;0.25;;;22.50;99.90;;;;;;5045623;28;20055;-67
2022/08/14 04:33:13;;;;;;;0.13;0.13;;;22.50;99.90;;;;;;5044504;28;20037;-68
2022/08/14 04:35:38;;;;;;;0.30;0.30;;;22.50;99.90;;;;;;5035985;28;20870;-68
2022/08/14 04:43:39;;;;;;;0.20;0.05;;;22.60;99.90;;;;;;5050093;28;20052;-68
2022/08/14 04:46:05;;;;;;;0.57;0.55;;;22.60;99.90;;;;;;5048067;28;20099;-68
2022/08/14 04:48:31;;;;;;;0.63;0.43;;;22.50;99.90;;;;;;5031388;28;20045;-68
2022/08/14 04:50:57;;;;;;;1.65;0.57;;;22.50;99.90;;;;;;5039814;28;20044;-68
2022/08/14 04:53:25;;;;;;;0.10;0.10;;;22.60;99.90;;;;;;5038442;28;20033;-68
2022/08/14 04:55:51;;;;;;;0.10;0.10;;;22.50;99.90;;;;;;5044468;28;20072;-69
2022/08/14 04:58:29;;;;;;;0.20;0.20;;;22.50;99.90;;;;;;5049698;28;20048;-68
2022/08/14 05:00:56;;;;;;;0.30;0.20;;;22.50;99.90;;;;;;5033849;28;20500;-69
2022/08/14 05:03:30;;;;;;;0.08;0.08;;;22.50;99.90;;;;;;5049663;28;20045;-68
2022/08/14 05:05:59;;;;;;;0.10;0.10;;;22.50;99.90;;;;;;5050714;28;20396;-68
2022/08/14 05:08:25;;;;;;;0.68;0.22;;;22.60;99.90;;;;;;5051292;28;20045;-68
2022/08/14 05:10:54;;;;;;;1.00;0.75;;;22.50;99.90;;;;;;5045372;28;20045;-68
2022/08/14 05:13:22;;;;;;;0.25;0.25;;;22.60;99.90;;;;;;5048055;28;20041;-68
2022/08/14 05:15:49;;;;;;;0.98;0.28;;;22.60;99.90;;;;;;5033032;28;20064;-68
2022/08/14 05:18:18;;;;;;;0.10;0.10;;;22.60;99.90;;;;;;5049793;28;20053;-68
2022/08/14 05:20:49;;;;;;;0.08;0.08;;;22.60;99.90;;;;;;5040318;28;20115;-68
2022/08/14 05:23:18;;;;;;;0.10;0.10;;;22.60;99.90;;;;;;5037796;28;20121;-68
2022/08/14 05:25:46;;;;;;;0.60;0.32;;;22.60;99.90;;;;;;5032716;28;20492;-68
2022/08/14 05:28:20;;;;;;;0.77;0.68;;;22.60;99.90;;;;;;5032002;28;20151;-68
2022/08/14 05:30:50;;;;;;;0.25;0.22;;;22.60;99.90;;;;;;5038221;28;20142;-68
2022/08/14 05:33:19;;;;;;;0.13;0.13;;;22.60;99.90;;;;;;5037734;28;20543;-68
2022/08/14 05:35:46;;;;;;;0.10;0.10;;;22.60;99.90;;;;;;5047474;28;20594;-68
2022/08/14 05:38:15;;;;;;;0.43;0.43;;;22.60;99.90;;;;;;5041836;28;20131;-69
2022/08/14 05:40:41;;;;;;;0.00;0.00;;;22.60;99.90;;;;;;5043136;28;20505;-68
2022/08/14 05:43:07;;;;;;;0.77;0.57;;;22.60;99.90;;;;;;5036346;28;20041;-69
2022/08/14 05:45:34;;;;;;;0.40;0.40;;;22.70;99.90;;;;;;5044747;28;20041;-69
2022/08/14 05:48:00;;;;;;;1.35;0.47;;;22.70;99.90;;;;;;5038909;28;20088;-69
2022/08/14 05:50:26;;;;;;;0.20;0.20;;;22.70;99.90;;;;;;5045693;28;20057;-69
2022/08/14 05:52:53;;;;;;;0.00;0.00;;;22.70;99.90;;;;;;5040440;28;20044;-69
2022/08/14 05:55:19;;;;;;;0.17;0.17;;;22.70;99.90;;;;;;5035745;28;20068;-69
2022/08/14 05:57:49;;;;;;;0.38;0.38;;;22.70;99.90;;;;;;5029795;28;20061;-69
2022/08/14 06:00:17;;;;;;;0.38;0.20;;;22.70;99.90;;;;;;5046275;28;20053;-70
2022/08/14 06:02:43;;;;;;;0.30;0.30;;;22.80;99.90;;;;;;5042040;28;20150;-69
2022/08/14 06:05:09;;;;;;;0.50;0.32;;;22.80;99.90;;;;;;5033404;28;20045;-69
2022/08/14 06:07:36;;;;;;;0.20;0.10;;;22.80;99.90;;;;;;5047184;28;20800;-69
2022/08/14 06:10:07;;;;;;;0.25;0.25;;;22.80;99.90;;;;;;5048467;28;20473;-69
2022/08/14 06:12:33;;;;;;;0.30;0.30;;;22.80;99.90;;;;;;5054638;28;20041;-68
2022/08/14 06:14:59;;;;;;;0.13;0.10;;;22.80;99.90;;;;;;5038621;28;20372;-69
2022/08/14 06:17:25;;;;;;;0.00;0.00;;;22.90;99.90;;;;;;5042023;28;20152;-68
2022/08/14 06:19:51;;;;;;;0.00;0.00;;;23.00;99.90;;;;;;5050788;28;20123;-68
2022/08/14 06:22:17;;;;;;;0.10;0.10;;;23.00;99.90;;;;;;5047807;28;20045;-68
2022/08/14 06:24:43;;;;;;;0.35;0.35;;;23.00;99.90;;;;;;5047666;28;20591;-68
2022/08/14 06:27:08;;;;;;;0.50;0.32;;;23.00;99.90;;;;;;5054404;28;20472;-69
2022/08/14 06:29:36;;;;;;;0.40;0.40;;;23.00;99.90;;;;;;5048887;28;20042;-69
2022/08/14 06:32:03;;;;;;;0.00;0.00;;;23.10;99.90;;;;;;5030605;28;20763;-70
2022/08/14 06:34:28;;;;;;;0.10;0.10;;;23.10;99.90;;;;;;5048357;28;20056;-68
2022/08/14 06:36:57;;;;;;;0.28;0.28;;;23.10;99.90;;;;;;5049095;28;20045;-69
2022/08/14 06:39:24;;;;;;;0.10;0.10;;;23.20;99.90;;;;;;5043049;28;20689;-68
2022/08/14 06:41:49;;;;;;;0.55;0.55;;;23.30;99.90;;;;;;5042582;28;20052;-69
2022/08/14 06:44:15;;;;;;;0.65;0.65;;;23.30;99.90;;;;;;5045650;28;20405;-69
2022/08/14 06:46:41;;;;;;;0.20;0.20;;;23.30;99.90;;;;;;5028599;28;20110;-68
2022/08/14 06:49:06;;;;;;;0.35;0.35;;;23.30;99.90;;;;;;5028033;28;20389;-69
2022/08/14 06:51:34;;;;;;;0.00;0.00;;;23.40;99.90;;;;;;5032918;28;20044;-70
2022/08/14 06:53:59;;;;;;;0.00;0.00;;;23.40;99.90;;;;;;5043274;28;20102;-70
2022/08/14 06:56:25;;;;;;;0.00;0.00;;;23.50;99.90;;;;;;5028880;28;20045;-69
2022/08/14 06:58:50;;;;;;;0.10;0.10;;;23.50;99.90;;;;;;5035496;28;20059;-69
2022/08/14 07:06:44;;;;;;;0.15;0.10;;;23.60;99.90;;;;;;5047516;28;20132;-69
2022/08/14 07:09:10;;;;;;;0.00;0.00;;;23.70;99.90;;;;;;5044687;28;20140;-69
2022/08/14 07:11:36;;;;;;;0.35;0.22;;;23.70;99.90;;;;;;5043558;28;20044;-69
2022/08/14 07:14:02;;;;;;;0.00;0.00;;;23.70;99.90;;;;;;5041027;28;20036;-70
2022/08/14 07:16:28;;;;;;;0.00;0.00;;;23.80;99.90;;;;;;5029890;28;20045;-70
2022/08/14 07:18:53;;;;;;;0.05;0.05;;;23.80;99.90;;;;;;5042163;28;20048;-69
2022/08/14 07:21:19;;;;;;;11.88;2.38;;;23.90;99.90;;;;;;5046516;28;20503;-69
2022/08/14 07:23:44;;;;;;;0.22;0.22;;;23.90;99.90;;;;;;5046797;28;20780;-69
2022/08/14 07:26:11;;;;;;;0.38;0.32;;;23.90;99.90;;;;;;5040119;28;20049;-69
2022/08/14 07:28:39;;;;;;;0.55;0.50;;;23.90;99.90;;;;;;5045312;28;20143;-69
2022/08/14 07:31:06;;;;;;;0.52;0.25;;;24.00;99.90;;;;;;5040503;28;20076;-69
2022/08/14 07:33:34;;;;;;;0.03;0.03;;;24.00;99.90;;;;;;5038177;28;20037;-70
2022/08/14 07:36:03;;;;;;;0.47;0.30;;;24.10;99.90;;;;;;5062690;28;20139;-69
2022/08/14 07:38:29;;;;;;;2.65;0.20;;;24.10;99.90;;;;;;5047522;28;20037;-69
2022/08/14 07:40:56;;;;;;;0.70;0.65;;;24.10;99.90;;;;;;5043146;28;20083;-69
2022/08/14 07:43:21;;;;;;;0.38;0.28;;;24.10;99.90;;;;;;5045945;28;20091;-69
2022/08/14 07:45:47;;;;;;;0.00;0.00;;;24.30;99.90;;;;;;5048727;28;20493;-69
2022/08/14 07:48:13;;;;;;;0.15;0.15;;;24.30;99.90;;;;;;5044032;28;20045;-69
2022/08/14 07:50:39;;;;;;;0.10;0.10;;;24.30;99.90;;;;;;5027227;28;20078;-69
2022/08/14 07:53:08;;;;;;;0.35;0.35;;;24.40;99.90;;;;;;5033751;28;20092;-69
2022/08/14 07:55:35;;;;;;;0.10;0.10;;;24.40;99.90;;;;;;5039268;28;20095;-69
2022/08/14 07:58:01;;;;;;;0.08;0.08;;;24.50;99.90;;;;;;5047165;28;20519;-69
2022/08/14 08:00:27;;;;;;;1.33;0.73;;;24.60;99.90;;;;;;5025892;28;20045;-69
2022/08/14 08:02:54;;;;;;;1.80;0.30;;;24.60;99.90;;;;;;5030191;28;20163;-69
2022/08/14 08:05:25;;;;;;;0.50;0.30;;;24.70;99.90;;;;;;5038878;28;20435;-69
2022/08/14 08:07:52;;;;;;;0.03;0.03;;;24.70;99.90;;;;;;5028287;28;20056;-69
2022/08/14 08:10:33;;;;;;;0.00;0.00;;;24.70;99.90;;;;;;5042786;28;20052;-69
2022/08/14 08:13:03;;;;;;;0.00;0.00;;;24.80;99.90;;;;;;5037279;28;20040;-69
2022/08/14 08:15:31;;;;;;;0.10;0.10;;;24.90;99.90;;;;;;5030719;28;20099;-69
2022/08/14 08:17:59;;;;;;;0.00;0.00;;;24.90;99.90;;;;;;5038502;28;20504;-69
2022/08/14 08:20:26;;;;;;;0.00;0.00;;;25.00;99.90;;;;;;5048059;28;20044;-69
2022/08/14 08:22:57;;;;;;;0.00;0.00;;;25.00;99.90;;;;;;5035810;28;20057;-70
2022/08/14 08:25:30;;;;;;;0.00;0.00;;;25.00;99.90;;;;;;5030292;28;20478;-70
2022/08/14 08:27:57;;;;;;;0.08;0.08;;;25.10;99.90;;;;;;5036824;28;20487;-70
2022/08/14 08:30:24;;;;;;;0.00;0.00;;;25.20;99.90;;;;;;5061848;28;20041;-70
2022/08/14 08:32:51;;;;;;;0.00;0.00;;;25.30;99.90;;;;;;5041567;28;20143;-69
2022/08/14 08:35:22;;;;;;;0.00;0.00;;;25.30;99.90;;;;;;5037036;28;20049;-70
2022/08/14 08:37:49;;;;;;;0.00;0.00;;;25.40;99.90;;;;;;5035932;28;20041;-71
2022/08/14 08:40:27;;;;;;;0.85;0.60;;;25.50;99.90;;;;;;5036641;28;20123;-70
2022/08/14 08:42:53;;;;;;;0.00;0.00;;;25.50;99.90;;;;;;5048586;28;20045;-70
2022/08/14 08:45:20;;;;;;;0.00;0.00;;;25.60;99.90;;;;;;5038647;28;20037;-70
2022/08/14 08:47:47;;;;;;;0.00;0.00;;;25.60;99.90;;;;;;5042477;28;20041;-70
2022/08/14 08:50:19;;;;;;;0.00;0.00;;;25.70;99.90;;;;;;5036014;28;20489;-70
2022/08/14 08:52:52;;;;;;;0.00;0.00;;;25.80;99.90;;;;;;5039149;28;20045;-70
2022/08/14 08:55:39;;;;;;;0.00;0.00;;;25.90;99.80;;;;;;5036053;28;20045;-70
2022/08/14 08:58:08;;;;;;;0.00;0.00;;;26.10;99.60;;;;;;5035888;28;20864;-70
2022/08/14 09:00:36;;;;;;;0.00;0.00;;;26.10;99.80;;;;;;5034875;28;20041;-69
2022/08/14 09:03:14;;;;;;;0.20;0.15;;;26.20;99.30;;;;;;5048560;28;20065;-70
2022/08/14 09:06:02;;;;;;;0.00;0.00;;;26.30;99.30;;;;;;5051298;28;20041;-70
2022/08/14 09:08:33;;;;;;;0.00;0.00;;;26.40;99.30;;;;;;5039302;28;20045;-70
2022/08/14 09:11:08;;;;;;;0.50;0.50;;;26.50;99.30;;;;;;5033476;28;20072;-70
2022/08/14 09:13:34;;;;;;;0.22;0.22;;;26.70;99.00;;;;;;5030254;28;20099;-70
2022/08/14 09:16:00;;;;;;;0.00;0.00;;;26.80;98.40;;;;;;5031345;28;20037;-70
2022/08/14 09:18:26;;;;;;;0.17;0.10;;;27.00;98.60;;;;;;5031165;28;20053;-70
2022/08/14 09:20:54;;;;;;;0.52;0.40;;;27.20;98.50;;;;;;5032639;28;20049;-70
2022/08/14 09:23:21;;;;;;;0.15;0.15;;;27.40;98.80;;;;;;5039854;28;20140;-70
2022/08/14 09:25:49;;;;;;;0.00;0.00;;;27.60;98.10;;;;;;5050381;28;20060;-70
2022/08/14 09:28:17;;;;;;;0.08;0.08;;;27.80;98.00;;;;;;5044640;28;20552;-70
2022/08/14 09:30:54;;;;;;;0.55;0.30;;;28.00;97.80;;;;;;5042895;28;20052;-70
2022/08/14 09:33:38;;;;;;;0.00;0.00;;;28.20;97.50;;;;;;5049646;28;20495;-70
2022/08/14 09:36:25;;;;;;;0.10;0.10;;;28.50;97.40;;;;;;5046471;28;20049;-70
2022/08/14 09:39:05;;;;;;;0.10;0.10;;;28.70;96.90;;;;;;5038277;28;20049;-70
2022/08/14 09:41:56;;;;;;;0.00;0.00;;;28.90;96.90;;;;;;5048151;28;20047;-70
2022/08/14 09:44:55;;;;;;;0.00;0.00;;;29.30;97.10;;;;;;5038332;28;20111;-70
2022/08/14 09:47:44;;;;;;;0.10;0.10;;;29.60;96.70;;;;;;5036478;28;20599;-70
2022/08/14 09:50:19;;;;;;;0.05;0.05;;;29.70;96.20;;;;;;5033661;28;20144;-70
2022/08/14 09:53:01;;;;;;;0.10;0.10;;;30.00;95.90;;;;;;5049541;28;20128;-70
2022/08/14 09:55:33;;;;;;;0.38;0.17;;;30.10;95.50;;;;;;5042484;28;20148;-70
2022/08/14 09:58:16;;;;;;;0.10;0.10;;;30.40;95.60;;;;;;5040134;28;20060;-70
2022/08/14 10:00:45;;;;;;;0.00;0.00;;;30.50;95.20;;;;;;5032668;28;20172;-70
2022/08/14 10:03:11;;;;;;;0.30;0.13;;;30.70;95.20;;;;;;5028190;28;20057;-70
2022/08/14 10:05:38;;;;;;;0.32;0.32;;;30.80;94.60;;;;;;5030144;28;20041;-70
2022/08/14 10:08:15;;;;;;;0.20;0.20;;;30.90;94.60;;;;;;5031050;28;20382;-70
2022/08/14 10:10:40;;;;;;;0.00;0.00;;;31.10;94.70;;;;;;5028413;28;20053;-69
2022/08/14 10:13:19;;;;;;;0.10;0.10;;;31.20;94.40;;;;;;5027340;28;20053;-70
2022/08/14 10:15:45;;;;;;;0.25;0.25;;;31.40;94.10;;;;;;5034199;28;20121;-70
2022/08/14 10:18:13;;;;;;;0.08;0.08;;;31.50;93.70;;;;;;5039221;28;20452;-70
2022/08/14 10:21:00;;;;;;;0.28;0.28;;;31.50;93.50;;;;;;5048068;28;20065;-70
2022/08/14 10:23:37;;;;;;;0.00;0.00;;;31.70;94.00;;;;;;5034480;28;20485;-70
2022/08/14 10:26:05;;;;;;;0.25;0.25;;;31.70;93.80;;;;;;5042259;28;20489;-70
2022/08/14 10:28:46;;;;;;;0.10;0.00;;;31.90;93.20;;;;;;5036472;28;20080;-70
2022/08/14 10:31:15;;;;;;;0.00;0.00;;;32.10;93.30;;;;;;5036612;28;20044;-70
2022/08/14 10:33:41;;;;;;;0.00;0.00;;;32.10;93.10;;;;;;5035329;28;20060;-70
2022/08/14 10:36:07;;;;;;;0.30;0.20;;;32.30;93.00;;;;;;5048660;28;20053;-70
2022/08/14 10:38:34;;;;;;;0.00;0.00;;;32.50;93.30;;;;;;5042328;28;20043;-70
2022/08/14 10:41:15;;;;;;;0.80;0.60;;;32.60;93.30;;;;;;5029506;28;20049;-70
2022/08/14 10:43:42;;;;;;;0.10;0.10;;;32.50;92.80;;;;;;5044167;28;20049;-70
2022/08/14 10:46:17;;;;;;;0.38;0.38;;;32.30;92.60;;;;;;5048756;28;20049;-70
2022/08/14 10:48:56;;;;;;;0.43;0.40;;;32.30;92.40;;;;;;5049704;28;20084;-70
2022/08/14 10:51:26;;;;;;;0.00;0.00;;;32.30;92.10;;;;;;5031304;28;20049;-70
2022/08/14 10:53:57;;;;;;;0.10;0.10;;;32.40;92.40;;;;;;5029936;28;20191;-70
2022/08/14 10:56:34;;;;;;;0.20;0.10;;;32.50;92.40;;;;;;5030293;28;20048;-70
2022/08/14 10:59:04;;;;;;;0.73;0.43;;;32.30;92.60;;;;;;5036146;28;20041;-70
2022/08/14 11:01:32;;;;;;;0.00;0.00;;;32.40;92.30;;;;;;5048166;28;20424;-70
2022/08/14 11:03:57;;;;;;;0.00;0.00;;;32.40;92.10;;;;;;5027113;28;20046;-70
2022/08/14 11:06:23;;;;;;;0.00;0.00;;;32.60;92.60;;;;;;5027187;28;20421;-70
2022/08/14 11:08:50;;;;;;;0.10;0.10;;;32.50;92.40;;;;;;5033985;28;20045;-70
2022/08/14 11:11:17;;;;;;;0.15;0.10;;;32.60;91.50;;;;;;5047917;28;20044;-70
2022/08/14 11:13:45;;;;;;;0.28;0.28;;;32.60;91.80;;;;;;5035759;28;20041;-71
2022/08/14 11:16:13;;;;;;;0.00;0.00;;;32.70;92.10;;;;;;5036818;28;20049;-71
2022/08/14 11:18:42;;;;;;;0.25;0.00;;;32.80;92.10;;;;;;5039178;28;20040;-72
2022/08/14 11:21:08;;;;;;;0.00;0.00;;;32.90;92.20;;;;;;5042762;28;20045;-71
2022/08/14 11:23:38;;;;;;;0.10;0.10;;;33.00;91.30;;;;;;5057737;28;20047;-71
2022/08/14 11:26:05;;;;;;;0.10;0.10;;;33.00;91.50;;;;;;5042915;28;20052;-70
2022/08/14 11:28:40;;;;;;;3.00;1.65;;;32.90;91.30;;;;;;5044188;28;20037;-70
2022/08/14 11:31:12;;;;;;;0.25;0.25;;;32.90;91.20;;;;;;5029609;28;20041;-70
2022/08/14 11:33:40;;;;;;;0.32;0.32;;;32.90;91.00;;;;;;5038895;28;20068;-70
2022/08/14 11:36:08;;;;;;;0.00;0.00;;;33.00;91.70;;;;;;5041028;28;20041;-71
2022/08/14 11:38:44;;;;;;;0.00;0.00;;;33.00;91.10;;;;;;5028069;28;20064;-71
2022/08/14 11:41:11;;;;;;;0.05;0.00;;;33.00;91.20;;;;;;5040162;28;20388;-71
2022/08/14 11:43:41;;;;;;;0.00;0.00;;;33.00;90.80;;;;;;5040297;28;20085;-70
2022/08/14 11:46:09;;;;;;;0.17;0.00;;;33.00;90.70;;;;;;5047668;28;20120;-70
2022/08/14 11:48:45;;;;;;;0.17;0.17;;;33.00;91.10;;;;;;5027653;28;20489;-71
2022/08/14 11:51:23;;;;;;;0.22;0.20;;;33.00;91.10;;;;;;5042661;28;20087;-71
2022/08/14 11:53:56;;;;;;;0.05;0.05;;;33.20;90.90;;;;;;5031787;28;20064;-70
2022/08/14 11:56:22;;;;;;;0.15;0.10;;;33.10;90.30;;;;;;5045818;28;20044;-70
2022/08/14 11:58:53;;;;;;;0.50;0.47;;;33.20;90.30;;;;;;5045083;28;20391;-70
2022/08/14 12:01:27;;;;;;;0.08;0.08;;;33.20;90.50;;;;;;5034646;28;20069;-71
2022/08/14 12:03:58;;;;;;;0.00;0.00;;;33.20;90.50;;;;;;5040769;28;20045;-71
2022/08/14 12:06:25;;;;;;;0.20;0.15;;;33.30;90.70;;;;;;5028455;28;20829;-71
2022/08/14 12:08:52;;;;;;;0.25;0.25;;;33.50;90.80;;;;;;5040022;28;20049;-70
2022/08/14 12:11:19;;;;;;;0.00;0.00;;;33.50;89.90;;;;;;5041615;28;20048;-71
2022/08/14 12:13:46;;;;;;;0.00;0.00;;;33.60;90.50;;;;;;5042868;28;20045;-70
2022/08/14 12:16:15;;;;;;;1.45;0.10;;;33.50;90.50;;;;;;5041439;28;20037;-71
2022/08/14 12:18:48;;;;;;;0.00;0.00;;;33.80;90.40;;;;;;5042775;28;20141;-71
2022/08/14 12:21:21;;;;;;;0.50;0.43;;;33.50;88.80;;;;;;5035968;28;20045;-70
2022/08/14 12:23:47;;;;;;;;;;;33.70;89.70;;;;;;5038567;28;20041;-70
2022/08/14 12:26:19;;;;;;;0.00;0.00;;;33.50;90.30;;;;;;5042232;28;19927;-70
2022/08/14 12:28:50;;;;;;;0.40;0.40;;;33.60;89.30;;;;;;5048203;28;20107;-70
2022/08/14 12:31:20;;;;;;;0.00;0.00;;;33.70;90.00;;;;;;5041966;28;20312;-71
2022/08/14 12:34:02;;;;;;;0.22;0.17;;;33.80;89.20;;;;;;5036081;28;20037;-70
2022/08/14 12:36:31;;;;;;;0.13;0.10;;;33.70;88.70;;;;;;5054698;28;20069;-70
2022/08/14 12:38:58;;;;;;;0.20;0.15;;;33.70;89.60;;;;;;5039833;28;20041;-71
2022/08/14 12:41:28;;;;;;;0.63;0.22;;;33.70;88.70;;;;;;5045320;28;20528;-71
2022/08/14 12:43:56;;;;;;;1.90;0.63;;;33.80;89.00;;;;;;5048038;28;20056;-71
2022/08/14 12:46:32;;;;;;;0.00;0.00;;;33.60;89.30;;;;;;5047442;28;20053;-71
2022/08/14 12:49:07;;;;;;;0.00;0.00;;;33.80;89.80;;;;;;5038033;28;20520;-70
2022/08/14 12:51:34;;;;;;;2.08;0.28;;;34.00;90.20;;;;;;5049973;28;20112;-71
2022/08/14 12:54:13;;;;;;;0.15;0.10;;;33.80;88.90;;;;;;5047105;28;20038;-71
2022/08/14 12:56:39;;;;;;;0.20;0.20;;;33.60;88.70;;;;;;5037989;28;20045;-71
2022/08/14 12:59:05;;;;;;;0.28;0.13;;;33.80;89.60;;;;;;5045236;28;20075;-72
2022/08/14 13:01:32;;;;;;;0.00;0.00;;;33.70;89.60;;;;;;5042514;28;20053;-72
2022/08/14 13:04:20;;;;;;;0.20;0.20;;;33.80;89.50;;;;;;5036644;28;20132;-71
2022/08/14 13:06:46;;;;;;;0.00;0.00;;;33.80;88.20;;;;;;5031203;28;20046;-70
2022/08/14 13:09:14;;;;;;;0.38;0.28;;;33.80;87.60;;;;;;5046054;28;20136;-71
2022/08/14 13:11:45;;;;;;;0.00;0.00;;;33.80;89.30;;;;;;5033589;28;20060;-70